Time;durP1;ratioP1;P1;durP2;ratioP2;P2;SDS_P1;SDS_P2;PMS_P1;PMS_P2;Temp;Humidity;BMP_temperature;BMP_pressure;BME280_temperature;BME280_humidity;BME280_pressure;Samples;Min_cycle;Max_cycle;Signal;HPM_P1;HPM_P2
2022/04/01 00:00:39;;;;;;;;;15.33;14.67;;;;;;;;5118882;27;45241;-71
2022/04/01 00:03:05;;;;;;;;;24.33;17.33;;;;;;;;5118927;27;45330;-71
2022/04/01 00:05:30;;;;;;;;;25.33;21.00;;;;;;;;5118791;27;45506;-71
2022/04/01 00:07:55;;;;;;;;;27.00;21.67;;;;;;;;5118279;27;47380;-71
2022/04/01 00:10:20;;;;;;;;;28.00;26.00;;;;;;;;5099736;27;45722;-72
2022/04/01 00:12:46;;;;;;;;;24.33;20.00;;;;;;;;5118548;27;45350;-71
2022/04/01 00:15:12;;;;;;;;;28.33;25.33;;;;;;;;5118920;27;45286;-72
2022/04/01 00:17:42;;;;;;;;;21.00;18.00;;;;;;;;5117997;27;46569;-71
2022/04/01 00:20:08;;;;;;;;;24.67;20.67;;;;;;;;5117607;27;45499;-72
2022/04/01 00:22:34;;;;;;;;;24.00;18.67;;;;;;;;5118248;27;45249;-72
2022/04/01 00:24:59;;;;;;;;;19.33;15.33;;;;;;;;5117982;27;46870;-71
2022/04/01 00:27:25;;;;;;;;;23.00;21.00;;;;;;;;5118113;27;46547;-73
2022/04/01 00:29:50;;;;;;;;;13.33;12.67;;;;;;;;5117483;27;45338;-72
2022/04/01 00:32:15;;;;;;;;;17.67;13.00;;;;;;;;5118442;27;45254;-72
2022/04/01 00:34:41;;;;;;;;;17.00;13.00;;;;;;;;5118312;27;45341;-72
2022/04/01 00:37:06;;;;;;;;;21.00;18.00;;;;;;;;5118042;27;47297;-72
2022/04/01 00:39:32;;;;;;;;;22.67;15.33;;;;;;;;5118348;27;45305;-72
2022/04/01 00:41:59;;;;;;;;;14.00;14.00;;;;;;;;5120031;27;45438;-72
2022/04/01 00:44:25;;;;;;;;;15.33;12.00;;;;;;;;5121797;27;45332;-72
2022/04/01 00:46:52;;;;;;;;;15.33;12.33;;;;;;;;5121493;27;45402;-72
2022/04/01 00:49:18;;;;;;;;;12.67;12.67;;;;;;;;5121519;27;45210;-72
2022/04/01 00:51:44;;;;;;;;;17.00;17.00;;;;;;;;5121832;27;45411;-72
2022/04/01 00:54:10;;;;;;;;;11.00;11.00;;;;;;;;5121673;27;45169;-72
2022/04/01 00:56:36;;;;;;;;;16.67;15.33;;;;;;;;5121649;27;46455;-72
2022/04/01 00:59:02;;;;;;;;;12.00;11.33;;;;;;;;5121150;27;45354;-72
2022/04/01 01:01:28;;;;;;;;;13.67;11.67;;;;;;;;5121589;27;45483;-72
2022/04/01 01:03:53;;;;;;;;;17.67;16.00;;;;;;;;5121599;27;45546;-72
2022/04/01 01:06:19;;;;;;;;;13.33;11.00;;;;;;;;5121220;27;45509;-72
2022/04/01 01:08:45;;;;;;;;;18.00;16.67;;;;;;;;5121160;27;45310;-72
2022/04/01 01:11:10;;;;;;;;;14.33;14.33;;;;;;;;5121651;27;45444;-72
2022/04/01 01:13:36;;;;;;;;;17.00;15.67;;;;;;;;5121517;27;45390;-72
2022/04/01 01:16:01;;;;;;;;;17.33;15.67;;;;;;;;5142140;27;45588;-72
2022/04/01 01:18:26;;;;;;;;;12.67;12.00;;;;;;;;5141960;27;45340;-72
2022/04/01 01:20:51;;;;;;;;;16.67;11.67;;;;;;;;5121582;27;45477;-72
2022/04/01 01:23:17;;;;;;;;;10.33;10.33;;;;;;;;5121281;27;45376;-72
2022/04/01 01:25:42;;;;;;;;;11.00;7.00;;;;;;;;5120859;27;45444;-72
2022/04/01 01:28:07;;;;;;;;;13.33;12.00;;;;;;;;5121139;27;45353;-72
2022/04/01 01:30:33;;;;;;;;;8.00;8.00;;;;;;;;5120505;27;45354;-72
2022/04/01 01:32:58;;;;;;;;;8.00;6.33;;;;;;;;5121343;27;45359;-72
2022/04/01 01:35:23;;;;;;;;;7.33;7.33;;;;;;;;5120758;27;46561;-72
2022/04/01 01:37:48;;;;;;;;;6.67;6.67;;;;;;;;5120999;27;45357;-72
2022/04/01 01:40:14;;;;;;;;;6.33;6.00;;;;;;;;5120642;27;45214;-71
2022/04/01 01:42:39;;;;;;;;;9.33;7.00;;;;;;;;5121101;27;45297;-72
2022/04/01 01:45:05;;;;;;;;;7.00;7.00;;;;;;;;5120685;27;45434;-72
2022/04/01 01:47:31;;;;;;;;;5.67;5.67;;;;;;;;5120735;27;45261;-73
2022/04/01 01:55:24;;;;;;;;;6.33;6.00;;;;;;;;5120540;27;45331;-72
2022/04/01 01:57:49;;;;;;;;;6.67;6.67;;;;;;;;5120219;27;45446;-73
2022/04/01 02:00:20;;;;;;;;;8.00;8.00;;;;;;;;5120707;27;45373;-72
2022/04/01 02:02:45;;;;;;;;;9.00;7.00;;;;;;;;5121120;27;45421;-73
2022/04/01 02:05:11;;;;;;;;;6.00;6.00;;;;;;;;5120429;27;46483;-72
2022/04/01 02:07:36;;;;;;;;;10.00;7.67;;;;;;;;5120367;27;45307;-72
2022/04/01 02:10:01;;;;;;;;;11.00;7.00;;;;;;;;5120178;27;45498;-72
2022/04/01 02:12:27;;;;;;;;;8.00;8.00;;;;;;;;5120777;27;45374;-72
2022/04/01 02:14:52;;;;;;;;;9.33;5.67;;;;;;;;5120039;27;46104;-72
2022/04/01 02:17:18;;;;;;;;;7.33;7.33;;;;;;;;5120115;27;45431;-73
2022/04/01 02:19:43;;;;;;;;;6.67;6.67;;;;;;;;5120447;27;45258;-72
2022/04/01 02:22:08;;;;;;;;;7.67;7.67;;;;;;;;5120363;27;45330;-72
2022/04/01 02:24:33;;;;;;;;;6.00;5.00;;;;;;;;5119634;27;45388;-72
2022/04/01 02:26:59;;;;;;;;;7.00;6.33;;;;;;;;5120446;27;45306;-72
2022/04/01 02:29:24;;;;;;;;;7.33;7.33;;;;;;;;5119778;27;45305;-72
2022/04/01 02:31:50;;;;;;;;;7.00;7.00;;;;;;;;5120420;27;45351;-72
2022/04/01 02:34:16;;;;;;;;;6.00;6.00;;;;;;;;5120147;27;45948;-72
2022/04/01 02:36:42;;;;;;;;;8.00;6.33;;;;;;;;5119914;27;45212;-72
2022/04/01 02:39:07;;;;;;;;;6.67;5.33;;;;;;;;5119775;27;45319;-72
2022/04/01 02:41:33;;;;;;;;;11.00;9.33;;;;;;;;5120375;27;45416;-72
2022/04/01 02:44:08;;;;;;;;;6.00;5.00;;;;;;;;5119803;27;46201;-72
2022/04/01 02:46:37;;;;;;;;;6.33;6.33;;;;;;;;5119768;27;45356;-72
2022/04/01 02:49:06;;;;;;;;;6.33;6.33;;;;;;;;5119805;27;45640;-72
2022/04/01 02:51:32;;;;;;;;;7.00;6.00;;;;;;;;5120035;27;45291;-72
2022/04/01 02:53:57;;;;;;;;;7.67;7.00;;;;;;;;5119635;27;47122;-72
2022/04/01 02:56:22;;;;;;;;;8.00;7.00;;;;;;;;5119603;27;45338;-72
2022/04/01 02:58:48;;;;;;;;;10.00;6.00;;;;;;;;5118952;27;45331;-72
2022/04/01 03:01:14;;;;;;;;;8.00;7.00;;;;;;;;5119708;27;45447;-71
2022/04/01 03:03:41;;;;;;;;;8.00;8.00;;;;;;;;5118486;27;46536;-72
2022/04/01 03:06:07;;;;;;;;;11.33;10.00;;;;;;;;5118892;27;45528;-72
2022/04/01 03:08:32;;;;;;;;;7.00;7.00;;;;;;;;5119455;27;45279;-71
2022/04/01 03:10:58;;;;;;;;;10.00;7.33;;;;;;;;5118956;27;45454;-71
2022/04/01 03:13:23;;;;;;;;;11.00;6.00;;;;;;;;5117951;27;46481;-71
2022/04/01 03:15:48;;;;;;;;;9.67;8.00;;;;;;;;5118857;27;45425;-72
2022/04/01 03:18:14;;;;;;;;;12.00;8.00;;;;;;;;5119475;27;45341;-71
2022/04/01 03:20:40;;;;;;;;;8.00;8.00;;;;;;;;5119541;27;45203;-71
2022/04/01 03:23:06;;;;;;;;;9.67;8.00;;;;;;;;5119382;27;45242;-71
2022/04/01 03:25:32;;;;;;;;;10.33;10.33;;;;;;;;5118586;27;45298;-71
2022/04/01 03:27:58;;;;;;;;;15.33;11.67;;;;;;;;5119132;27;45479;-71
2022/04/01 03:30:23;;;;;;;;;11.00;11.00;;;;;;;;5098694;27;45346;-70
2022/04/01 03:32:49;;;;;;;;;13.00;12.67;;;;;;;;5098042;27;47287;-71
2022/04/01 03:35:16;;;;;;;;;11.00;9.33;;;;;;;;5098528;27;45310;-71
2022/04/01 03:37:42;;;;;;;;;10.67;10.00;;;;;;;;5112933;27;45354;-71
2022/04/01 03:40:08;;;;;;;;;11.00;8.67;;;;;;;;5119286;27;45355;-71
2022/04/01 03:42:33;;;;;;;;;12.00;10.33;;;;;;;;5118750;27;47787;-71
2022/04/01 03:45:00;;;;;;;;;10.00;9.00;;;;;;;;5118047;27;45441;-72
2022/04/01 03:47:29;;;;;;;;;11.67;11.67;;;;;;;;5119137;27;45308;-72
2022/04/01 03:49:59;;;;;;;;;12.00;10.00;;;;;;;;5119061;27;45360;-72
2022/04/01 03:52:24;;;;;;;;;12.00;10.00;;;;;;;;5118189;27;45412;-71
2022/04/01 03:54:52;;;;;;;;;10.00;7.67;;;;;;;;5118956;27;45388;-72
2022/04/01 03:57:18;;;;;;;;;11.67;10.67;;;;;;;;5118451;27;45383;-72
2022/04/01 03:59:44;;;;;;;;;8.33;8.33;;;;;;;;5118580;27;45399;-72
2022/04/01 04:02:13;;;;;;;;;8.33;6.00;;;;;;;;5118718;27;45489;-72
2022/04/01 04:04:39;;;;;;;;;3.67;3.67;;;;;;;;5118310;27;45285;-72
2022/04/01 04:07:08;;;;;;;;;10.67;8.67;;;;;;;;5118748;27;45370;-72
2022/04/01 04:09:37;;;;;;;;;11.00;7.00;;;;;;;;5118696;27;45330;-72
2022/04/01 04:12:03;;;;;;;;;8.00;6.33;;;;;;;;5118207;27;45401;-72
2022/04/01 04:14:28;;;;;;;;;8.33;8.33;;;;;;;;5118532;27;45861;-72
2022/04/01 04:16:55;;;;;;;;;7.00;5.33;;;;;;;;5117582;27;45226;-72
2022/04/01 04:19:33;;;;;;;;;9.33;9.33;;;;;;;;5118433;27;45393;-72
2022/04/01 04:21:58;;;;;;;;;7.00;5.00;;;;;;;;5117891;27;46244;-72
2022/04/01 04:24:44;;;;;;;;;8.33;7.00;;;;;;;;5117474;27;45499;-72
2022/04/01 04:27:11;;;;;;;;;6.33;6.33;;;;;;;;5097163;27;45564;-71
2022/04/01 04:29:42;;;;;;;;;6.33;6.33;;;;;;;;5118382;27;45487;-72
2022/04/01 04:32:11;;;;;;;;;6.67;6.67;;;;;;;;5118103;27;46528;-70
2022/04/01 04:34:37;;;;;;;;;6.33;6.33;;;;;;;;5117932;27;45454;-72
2022/04/01 04:37:08;;;;;;;;;7.33;6.33;;;;;;;;5118113;27;45817;-71
2022/04/01 04:39:35;;;;;;;;;11.33;9.33;;;;;;;;5117922;27;45326;-72
2022/04/01 04:42:03;;;;;;;;;9.33;6.67;;;;;;;;5117709;27;46311;-72
2022/04/01 04:44:30;;;;;;;;;7.00;7.00;;;;;;;;5118115;27;45207;-72
2022/04/01 04:46:56;;;;;;;;;7.00;6.00;;;;;;;;5118101;27;45420;-72
2022/04/01 04:49:22;;;;;;;;;5.67;5.33;;;;;;;;5117774;27;45499;-72
2022/04/01 04:51:50;;;;;;;;;5.67;5.67;;;;;;;;5117541;27;46217;-72
2022/04/01 04:54:17;;;;;;;;;6.67;6.67;;;;;;;;5117783;27;45311;-72
2022/04/01 04:56:43;;;;;;;;;9.33;8.00;;;;;;;;5117950;27;45440;-72
2022/04/01 04:59:09;;;;;;;;;7.00;7.00;;;;;;;;5118434;27;45298;-72
2022/04/01 05:01:40;;;;;;;;;8.67;7.33;;;;;;;;5117627;27;45456;-72
2022/04/01 05:04:11;;;;;;;;;6.33;5.00;;;;;;;;5117247;27;45385;-72
2022/04/01 05:06:40;;;;;;;;;8.67;5.33;;;;;;;;5118170;27;45348;-72
2022/04/01 05:09:05;;;;;;;;;5.33;5.33;;;;;;;;5117755;27;45452;-72
2022/04/01 05:11:44;;;;;;;;;5.67;5.00;;;;;;;;5117710;27;45375;-72
2022/04/01 05:14:16;;;;;;;;;5.00;5.00;;;;;;;;5117736;27;45378;-72
2022/04/01 05:16:43;;;;;;;;;7.67;7.67;;;;;;;;5117641;27;45249;-72
2022/04/01 05:19:10;;;;;;;;;5.00;5.00;;;;;;;;5117376;27;45241;-72
2022/04/01 05:21:54;;;;;;;;;6.67;5.33;;;;;;;;5117529;27;45515;-72
2022/04/01 05:24:25;;;;;;;;;6.00;6.00;;;;;;;;5117746;27;45354;-72
2022/04/01 05:26:54;;;;;;;;;11.00;9.33;;;;;;;;5117643;27;45445;-72
2022/04/01 05:29:26;;;;;;;;;9.00;9.00;;;;;;;;5119805;27;45234;-71
2022/04/01 05:32:05;;;;;;;;;6.00;6.00;;;;;;;;5134380;27;45616;-72
2022/04/01 05:34:49;;;;;;;;;10.33;9.00;;;;;;;;5100410;27;45378;-72
2022/04/01 05:37:15;;;;;;;;;9.33;8.67;;;;;;;;5100337;27;45287;-72
2022/04/01 05:39:42;;;;;;;;;3.00;3.00;;;;;;;;5101285;27;45350;-72
2022/04/01 05:42:07;;;;;;;;;6.00;6.00;;;;;;;;5120911;27;46054;-72
2022/04/01 05:44:34;;;;;;;;;7.00;6.00;;;;;;;;5120610;27;45314;-72
2022/04/01 05:47:00;;;;;;;;;10.00;6.67;;;;;;;;5120819;27;45398;-72
2022/04/01 05:49:26;;;;;;;;;9.33;6.33;;;;;;;;5121027;27;45332;-72
2022/04/01 05:51:52;;;;;;;;;7.67;7.00;;;;;;;;5119996;27;45606;-72
2022/04/01 05:54:22;;;;;;;;;13.67;13.33;;;;;;;;5120685;27;45331;-72
2022/04/01 05:56:48;;;;;;;;;11.00;8.67;;;;;;;;5120860;27;45421;-72
2022/04/01 05:59:18;;;;;;;;;9.00;7.00;;;;;;;;5120416;27;45405;-72
2022/04/01 06:01:46;;;;;;;;;10.00;7.00;;;;;;;;5120064;27;46444;-71
2022/04/01 06:04:30;;;;;;;;;7.00;7.00;;;;;;;;5120202;27;45313;-71
2022/04/01 06:07:24;;;;;;;;;5.67;5.67;;;;;;;;5120428;27;45362;-71
2022/04/01 06:09:55;;;;;;;;;9.00;9.00;;;;;;;;5036634;28;45527;-71
2022/04/01 06:12:29;;;;;;;;;10.00;6.33;;;;;;;;5036655;28;45540;-71
2022/04/01 06:15:15;;;;;;;;;9.67;7.67;;;;;;;;5036210;28;45390;-72
2022/04/01 06:18:12;;;;;;;;;9.67;8.67;;;;;;;;5035899;28;45437;-71
2022/04/01 06:20:40;;;;;;;;;7.33;6.67;;;;;;;;4977512;28;45490;-71
2022/04/01 06:23:07;;;;;;;;;9.67;8.00;;;;;;;;4976799;28;46131;-71
2022/04/01 06:25:34;;;;;;;;;15.33;9.67;;;;;;;;4972289;28;46936;-71
2022/04/01 06:28:07;;;;;;;;;15.33;14.00;;;;;;;;4958214;28;45537;-71
2022/04/01 06:30:32;;;;;;;;;10.00;10.00;;;;;;;;4957200;28;45688;-71
2022/04/01 06:33:09;;;;;;;;;9.00;9.00;;;;;;;;4967734;28;45387;-71
2022/04/01 06:35:48;;;;;;;;;10.00;8.67;;;;;;;;4976612;28;45474;-71
2022/04/01 06:38:18;;;;;;;;;10.33;10.00;;;;;;;;4976747;28;45481;-71
2022/04/01 06:40:52;;;;;;;;;9.33;9.33;;;;;;;;4966003;28;45770;-70
2022/04/01 06:43:17;;;;;;;;;10.33;10.33;;;;;;;;4957093;28;46367;-71
2022/04/01 06:45:42;;;;;;;;;10.33;9.00;;;;;;;;4973737;28;45406;-71
2022/04/01 06:48:08;;;;;;;;;10.67;10.33;;;;;;;;5016237;28;45465;-71
2022/04/01 06:50:33;;;;;;;;;11.00;10.67;;;;;;;;5016311;28;45489;-71
2022/04/01 06:52:58;;;;;;;;;7.00;7.00;;;;;;;;5016021;28;45440;-70
2022/04/01 06:55:24;;;;;;;;;14.67;12.00;;;;;;;;5028817;27;45358;-70
2022/04/01 06:57:50;;;;;;;;;11.00;7.33;;;;;;;;5110175;27;45457;-71
2022/04/01 07:00:16;;;;;;;;;9.33;9.33;;;;;;;;5119811;27;45818;-71
2022/04/01 07:02:41;;;;;;;;;11.00;10.00;;;;;;;;5134356;27;47226;-71
2022/04/01 07:05:07;;;;;;;;;13.33;10.00;;;;;;;;5123046;27;45855;-71
2022/04/01 07:07:32;;;;;;;;;10.00;10.00;;;;;;;;5119408;27;45367;-71
2022/04/01 07:09:57;;;;;;;;;11.33;10.33;;;;;;;;5119660;27;45395;-71
2022/04/01 07:12:23;;;;;;;;;14.00;11.67;;;;;;;;5118939;27;45397;-71
2022/04/01 07:14:49;;;;;;;;;14.33;11.00;;;;;;;;5118630;27;45271;-70
2022/04/01 07:17:14;;;;;;;;;15.67;12.67;;;;;;;;5118854;27;45373;-70
2022/04/01 07:19:39;;;;;;;;;11.00;11.00;;;;;;;;5130227;27;46894;-73
2022/04/01 07:22:06;;;;;;;;;15.67;12.33;;;;;;;;5139555;27;45315;-73
2022/04/01 07:24:32;;;;;;;;;8.00;7.33;;;;;;;;5110033;27;45474;-73
2022/04/01 07:26:57;;;;;;;;;16.00;11.67;;;;;;;;5139410;27;45389;-73
2022/04/01 07:29:23;;;;;;;;;14.33;7.33;;;;;;;;5140036;27;45341;-73
2022/04/01 07:34:33;;;;;;;;;12.00;10.00;;;;;;;;5118285;27;45320;-73
2022/04/01 07:36:59;;;;;;;;;14.33;11.00;;;;;;;;5118986;27;45386;-73
2022/04/01 07:39:24;;;;;;;;;9.00;9.00;;;;;;;;5118751;27;45348;-73
2022/04/01 07:41:50;;;;;;;;;12.00;12.00;;;;;;;;5118563;27;46489;-73
2022/04/01 07:44:15;;;;;;;;;14.00;12.00;;;;;;;;5118332;27;45881;-73
2022/04/01 07:46:40;;;;;;;;;15.00;10.67;;;;;;;;5118420;27;45337;-73
2022/04/01 07:49:05;;;;;;;;;10.67;8.33;;;;;;;;5118972;27;45693;-73
2022/04/01 07:51:31;;;;;;;;;18.33;12.67;;;;;;;;5117281;27;47247;-73
2022/04/01 07:53:56;;;;;;;;;10.33;8.67;;;;;;;;5118326;27;45426;-73
2022/04/01 07:56:21;;;;;;;;;11.33;11.33;;;;;;;;5118629;27;45345;-73
2022/04/01 07:58:46;;;;;;;;;9.33;9.33;;;;;;;;5118893;27;45418;-73
2022/04/01 08:01:12;;;;;;;;;11.33;8.67;;;;;;;;5117404;27;45763;-73
2022/04/01 08:03:41;;;;;;;;;12.33;10.00;;;;;;;;5117718;27;45421;-73
2022/04/01 08:06:07;;;;;;;;;10.00;10.00;;;;;;;;5118306;27;45266;-73
2022/04/01 08:08:32;;;;;;;;;14.00;9.67;;;;;;;;5118308;27;45238;-73
2022/04/01 08:10:58;;;;;;;;;10.67;10.67;;;;;;;;5117604;27;45462;-73
2022/04/01 08:13:23;;;;;;;;;13.33;13.33;;;;;;;;5118353;27;45257;-73
2022/04/01 08:15:48;;;;;;;;;11.33;11.33;;;;;;;;5118088;27;45428;-73
2022/04/01 08:18:13;;;;;;;;;16.67;12.33;;;;;;;;5118114;27;45448;-73
2022/04/01 08:20:38;;;;;;;;;13.00;13.00;;;;;;;;5118454;27;45371;-72
2022/04/01 08:23:05;;;;;;;;;11.33;11.33;;;;;;;;5118462;27;45357;-73
2022/04/01 08:25:30;;;;;;;;;16.00;12.00;;;;;;;;5118519;27;45323;-73
2022/04/01 08:27:55;;;;;;;;;15.00;12.67;;;;;;;;5118326;27;45404;-73
2022/04/01 08:30:21;;;;;;;;;16.33;13.33;;;;;;;;5118295;27;47353;-72
2022/04/01 08:32:46;;;;;;;;;14.67;11.33;;;;;;;;5117832;27;45402;-73
2022/04/01 08:35:11;;;;;;;;;11.67;9.67;;;;;;;;5118352;27;45451;-74
2022/04/01 08:37:38;;;;;;;;;13.33;11.33;;;;;;;;5118686;27;45322;-73
2022/04/01 08:40:05;;;;;;;;;15.67;14.00;;;;;;;;5117378;27;45501;-74
2022/04/01 08:42:32;;;;;;;;;11.00;11.00;;;;;;;;5118311;27;45491;-74
2022/04/01 08:44:57;;;;;;;;;17.33;15.67;;;;;;;;5117878;27;45298;-74
2022/04/01 08:47:23;;;;;;;;;7.00;7.00;;;;;;;;5117640;27;45523;-74
2022/04/01 08:49:48;;;;;;;;;13.33;12.00;;;;;;;;5117636;27;45277;-74
2022/04/01 08:52:14;;;;;;;;;12.00;11.00;;;;;;;;5117713;27;45559;-74
2022/04/01 08:54:39;;;;;;;;;14.67;12.00;;;;;;;;5117677;27;45516;-74
2022/04/01 08:57:08;;;;;;;;;11.67;9.67;;;;;;;;5116901;27;45337;-74
2022/04/01 08:59:35;;;;;;;;;9.00;8.00;;;;;;;;5117660;27;46327;-75
2022/04/01 09:02:08;;;;;;;;;11.67;11.67;;;;;;;;5117587;27;45269;-75
2022/04/01 09:04:33;;;;;;;;;11.00;11.00;;;;;;;;5121275;27;45393;-74
2022/04/01 09:07:09;;;;;;;;;11.00;9.67;;;;;;;;5121147;27;45448;-74
2022/04/01 09:09:34;;;;;;;;;14.00;13.67;;;;;;;;5121083;27;45434;-73
2022/04/01 09:12:17;;;;;;;;;18.00;14.67;;;;;;;;5121229;27;45289;-74
2022/04/01 09:14:50;;;;;;;;;14.33;14.00;;;;;;;;5121209;27;45387;-74
2022/04/01 09:17:15;;;;;;;;;16.00;11.00;;;;;;;;5121548;27;45502;-73
2022/04/01 09:19:41;;;;;;;;;11.33;8.33;;;;;;;;5120929;27;46515;-74
2022/04/01 09:22:16;;;;;;;;;10.00;8.67;;;;;;;;5120735;27;45741;-74
2022/04/01 09:24:56;;;;;;;;;14.67;9.67;;;;;;;;5121241;27;45395;-74
2022/04/01 09:27:40;;;;;;;;;10.00;10.00;;;;;;;;5100877;27;45601;-74
2022/04/01 09:30:07;;;;;;;;;11.00;8.67;;;;;;;;5100574;27;45463;-73
2022/04/01 09:32:43;;;;;;;;;12.00;11.00;;;;;;;;5120642;27;45409;-74
2022/04/01 09:35:10;;;;;;;;;11.00;11.00;;;;;;;;5121079;27;45214;-74
2022/04/01 09:37:36;;;;;;;;;10.67;10.00;;;;;;;;5120765;27;45446;-74
2022/04/01 09:40:02;;;;;;;;;6.00;6.00;;;;;;;;5120568;27;46169;-74
2022/04/01 09:42:27;;;;;;;;;11.00;9.67;;;;;;;;5120883;27;45339;-74
2022/04/01 09:44:57;;;;;;;;;10.33;8.67;;;;;;;;5119550;27;45767;-73
2022/04/01 09:47:22;;;;;;;;;8.33;8.33;;;;;;;;5120752;27;45366;-74
2022/04/01 09:49:48;;;;;;;;;10.67;10.67;;;;;;;;5120479;27;46521;-73
2022/04/01 09:52:20;;;;;;;;;12.33;10.00;;;;;;;;5120371;27;45405;-73
2022/04/01 09:54:52;;;;;;;;;10.33;10.33;;;;;;;;5105463;27;45565;-73
2022/04/01 09:57:19;;;;;;;;;7.00;7.00;;;;;;;;5099899;27;45386;-73
2022/04/01 09:59:46;;;;;;;;;12.00;7.00;;;;;;;;5099662;27;46300;-73
2022/04/01 10:02:11;;;;;;;;;10.33;8.00;;;;;;;;5099785;27;45273;-73
2022/04/01 10:04:36;;;;;;;;;10.33;7.00;;;;;;;;5099624;27;45474;-73
2022/04/01 10:07:02;;;;;;;;;10.00;8.67;;;;;;;;5100110;27;45237;-72
2022/04/01 10:09:29;;;;;;;;;9.67;9.67;;;;;;;;5099109;27;47883;-72
2022/04/01 10:11:57;;;;;;;;;10.67;6.67;;;;;;;;5099771;27;45339;-72
2022/04/01 10:14:24;;;;;;;;;10.67;10.67;;;;;;;;5098993;27;45418;-68
2022/04/01 10:16:50;;;;;;;;;9.33;9.33;;;;;;;;5099438;27;45540;-72
2022/04/01 10:19:26;;;;;;;;;8.00;8.00;;;;;;;;5098928;27;46008;-73
2022/04/01 10:21:51;;;;;;;;;7.33;6.00;;;;;;;;5099504;27;45399;-73
2022/04/01 10:24:20;;;;;;;;;6.00;6.00;;;;;;;;5099404;27;45525;-73
2022/04/01 10:26:54;;;;;;;;;8.00;7.00;;;;;;;;5092656;27;45447;-73
2022/04/01 10:29:20;;;;;;;;;6.00;2.33;;;;;;;;5078717;28;45493;-73
2022/04/01 10:32:05;;;;;;;;;10.00;7.00;;;;;;;;5096877;27;45652;-73
2022/04/01 10:34:31;;;;;;;;;9.33;9.33;;;;;;;;5097657;27;45328;-73
2022/04/01 10:37:00;;;;;;;;;9.00;9.00;;;;;;;;5099515;27;45311;-72
2022/04/01 10:39:26;;;;;;;;;9.33;9.33;;;;;;;;5099200;27;46810;-73
2022/04/01 10:42:06;;;;;;;;;8.33;5.33;;;;;;;;5097642;27;45378;-77
2022/04/01 10:44:44;;;;;;;;;6.67;6.67;;;;;;;;5097849;27;45418;-74
2022/04/01 10:47:10;;;;;;;;;8.33;7.00;;;;;;;;5099790;27;45199;-72
2022/04/01 10:52:23;;;;;;;;;12.33;8.00;;;;;;;;5109209;27;45387;-73
2022/04/01 10:54:50;;;;;;;;;8.00;8.00;;;;;;;;5119981;27;45162;-76
2022/04/01 10:57:26;;;;;;;;;14.00;10.67;;;;;;;;5119541;27;45232;-69
2022/04/01 10:59:52;;;;;;;;;14.33;11.00;;;;;;;;5119610;27;46936;-76
2022/04/01 11:02:18;;;;;;;;;7.67;7.00;;;;;;;;5119256;27;45430;-70
2022/04/01 11:04:44;;;;;;;;;7.00;6.67;;;;;;;;5127174;27;45475;-71
2022/04/01 11:07:11;;;;;;;;;6.67;6.67;;;;;;;;5124897;27;45890;-76
2022/04/01 11:09:45;;;;;;;;;7.00;6.00;;;;;;;;5118143;27;46410;-72
2022/04/01 11:12:21;;;;;;;;;6.00;6.00;;;;;;;;5119315;27;45243;-71
2022/04/01 11:15:19;;;;;;;;;8.67;5.00;;;;;;;;5119507;27;45210;-73
2022/04/01 11:17:44;;;;;;;;;5.00;5.00;;;;;;;;5119634;27;45412;-70
2022/04/01 11:20:09;;;;;;;;;3.33;3.33;;;;;;;;5119494;27;45674;-73
2022/04/01 11:22:34;;;;;;;;;5.00;3.00;;;;;;;;5119234;27;45421;-76
2022/04/01 11:24:59;;;;;;;;;6.33;4.33;;;;;;;;5119005;27;45530;-72
2022/04/01 11:27:25;;;;;;;;;7.33;4.67;;;;;;;;5119672;27;46374;-70
2022/04/01 11:30:13;;;;;;;;;7.00;4.67;;;;;;;;5119208;27;45409;-70
2022/04/01 11:32:39;;;;;;;;;9.33;6.00;;;;;;;;5119177;27;45401;-70
2022/04/01 11:35:05;;;;;;;;;4.67;4.67;;;;;;;;5118950;27;45805;-70
2022/04/01 11:37:34;;;;;;;;;4.33;4.33;;;;;;;;5118997;27;45297;-74
2022/04/01 11:40:09;;;;;;;;;7.00;5.67;;;;;;;;5118028;27;45482;-73
2022/04/01 11:42:34;;;;;;;;;6.33;6.33;;;;;;;;5118516;27;45503;-74
2022/04/01 11:45:00;;;;;;;;;4.67;4.67;;;;;;;;5118648;27;45287;-74
2022/04/01 11:47:32;;;;;;;;;7.00;6.00;;;;;;;;5118056;27;45511;-72
2022/04/01 11:50:11;;;;;;;;;6.00;3.67;;;;;;;;5117742;27;46375;-71
2022/04/01 11:52:38;;;;;;;;;6.00;4.00;;;;;;;;5117723;27;45454;-73
2022/04/01 11:55:10;;;;;;;;;7.00;5.33;;;;;;;;5118551;27;45373;-73
2022/04/01 11:57:37;;;;;;;;;2.00;2.00;;;;;;;;5118740;27;45355;-73
2022/04/01 12:00:09;;;;;;;;;2.00;1.67;;;;;;;;5118037;27;46793;-72
2022/04/01 12:02:35;;;;;;;;;3.67;3.67;;;;;;;;5118442;27;45555;-71
2022/04/01 12:05:00;;;;;;;;;4.00;3.00;;;;;;;;5117061;27;45417;-72
2022/04/01 12:10:20;;;;;;;;;4.00;3.00;;;;;;;;5061163;28;45428;-73
2022/04/01 12:12:58;;;;;;;;;4.00;4.00;;;;;;;;5074829;28;45489;-73
2022/04/01 12:15:34;;;;;;;;;6.00;4.00;;;;;;;;5080663;27;45382;-73
2022/04/01 12:18:00;;;;;;;;;3.33;3.33;;;;;;;;5076849;28;45378;-73
2022/04/01 12:20:28;;;;;;;;;4.67;3.00;;;;;;;;5076624;27;45433;-73
2022/04/01 12:22:54;;;;;;;;;3.00;3.00;;;;;;;;5071929;27;45415;-72
2022/04/01 12:25:19;;;;;;;;;4.00;2.00;;;;;;;;5076681;28;45460;-72
2022/04/01 12:27:51;;;;;;;;;5.33;3.33;;;;;;;;5076215;27;45431;-73
2022/04/01 12:30:27;;;;;;;;;5.33;2.00;;;;;;;;5076765;28;46818;-72
2022/04/01 12:32:56;;;;;;;;;4.00;3.00;;;;;;;;5076520;28;45846;-74
2022/04/01 12:35:22;;;;;;;;;9.33;6.67;;;;;;;;5076590;28;45401;-74
2022/04/01 12:38:01;;;;;;;;;3.00;2.50;;;;;;;;5078053;28;45819;-72
2022/04/01 12:40:26;;;;;;;;;5.67;2.67;;;;;;;;5079696;28;46511;-71
2022/04/01 12:42:52;;;;;;;;;3.33;2.00;;;;;;;;5080370;27;45431;-71
2022/04/01 12:45:17;;;;;;;;;3.00;3.00;;;;;;;;5100565;27;45296;-71
2022/04/01 12:47:42;;;;;;;;;3.33;3.33;;;;;;;;5086333;27;45545;-70
2022/04/01 12:50:08;;;;;;;;;3.67;3.00;;;;;;;;5088929;27;47379;-73
2022/04/01 12:52:33;;;;;;;;;3.00;3.00;;;;;;;;5082164;27;45337;-70
2022/04/01 12:55:00;;;;;;;;;3.33;2.00;;;;;;;;5100451;27;45693;-72
2022/04/01 12:57:26;;;;;;;;;4.00;4.00;;;;;;;;5093371;27;45536;-72
2022/04/01 12:59:51;;;;;;;;;7.33;5.67;;;;;;;;5079228;28;46028;-71
2022/04/01 13:02:20;;;;;;;;;23.00;21.67;;;;;;;;5082170;27;45465;-72
2022/04/01 13:04:50;;;;;;;;;6.33;6.00;;;;;;;;5080719;27;45510;-73
2022/04/01 13:07:18;;;;;;;;;4.00;4.00;;;;;;;;5079409;28;45612;-72
2022/04/01 13:09:48;;;;;;;;;6.00;5.33;;;;;;;;5079030;28;47161;-72
2022/04/01 13:12:13;;;;;;;;;7.00;5.00;;;;;;;;5079314;28;45391;-72
2022/04/01 13:14:39;;;;;;;;;3.33;3.33;;;;;;;;5079231;28;45322;-72
2022/04/01 13:17:12;;;;;;;;;5.00;5.00;;;;;;;;5078902;28;45580;-72
2022/04/01 13:19:40;;;;;;;;;4.67;4.67;;;;;;;;5079263;28;45407;-73
2022/04/01 13:22:06;;;;;;;;;4.00;4.00;;;;;;;;5078201;28;45482;-73
2022/04/01 13:24:37;;;;;;;;;2.67;2.00;;;;;;;;5079209;28;45535;-73
2022/04/01 13:27:03;;;;;;;;;4.67;3.00;;;;;;;;5079715;28;45333;-73
2022/04/01 13:29:29;;;;;;;;;6.00;5.33;;;;;;;;5079279;28;45501;-72
2022/04/01 13:31:55;;;;;;;;;4.33;4.33;;;;;;;;5083088;27;45616;-74
2022/04/01 13:34:20;;;;;;;;;4.33;4.33;;;;;;;;5099582;27;45504;-74
2022/04/01 13:36:46;;;;;;;;;5.33;5.33;;;;;;;;5099701;27;45403;-75
2022/04/01 13:39:12;;;;;;;;;6.50;3.50;;;;;;;;5099517;27;46725;-73
2022/04/01 13:41:37;;;;;;;;;4.00;4.00;;;;;;;;5097772;27;45395;-74
2022/04/01 13:44:03;;;;;;;;;5.33;5.33;;;;;;;;5079150;27;45401;-73
2022/04/01 13:46:28;;;;;;;;;5.33;3.67;;;;;;;;5079133;28;45287;-73
2022/04/01 13:48:53;;;;;;;;;4.00;4.00;;;;;;;;5079238;27;46316;-74
2022/04/01 13:51:19;;;;;;;;;7.00;4.00;;;;;;;;5078712;28;45770;-74
2022/04/01 13:53:44;;;;;;;;;3.33;2.67;;;;;;;;5077864;28;45489;-74
2022/04/01 13:56:10;;;;;;;;;7.00;3.00;;;;;;;;5079063;28;45501;-73
2022/04/01 13:58:35;;;;;;;;;5.00;3.00;;;;;;;;5078818;28;46118;-73
2022/04/01 14:01:01;;;;;;;;;3.00;2.67;;;;;;;;5077909;28;45735;-74
2022/04/01 14:03:26;;;;;;;;;3.00;2.67;;;;;;;;5084281;27;45538;-73
2022/04/01 14:05:52;;;;;;;;;3.67;3.67;;;;;;;;5078434;28;45482;-72
2022/04/01 14:08:18;;;;;;;;;3.00;2.00;;;;;;;;5076760;27;46912;-73
2022/04/01 14:10:43;;;;;;;;;4.00;4.00;;;;;;;;5077896;28;45368;-74
2022/04/01 14:13:08;;;;;;;;;7.00;7.00;;;;;;;;5077610;27;45661;-78
2022/04/01 14:15:34;;;;;;;;;5.00;5.00;;;;;;;;5078561;28;45179;-72
2022/04/01 14:17:59;;;;;;;;;7.00;4.67;;;;;;;;5077933;28;47178;-75
2022/04/01 14:20:25;;;;;;;;;5.33;5.33;;;;;;;;5078328;28;45363;-75
2022/04/01 14:22:50;;;;;;;;;4.67;4.67;;;;;;;;5078216;28;45387;-77
2022/04/01 14:25:15;;;;;;;;;6.33;6.33;;;;;;;;5078327;27;45381;-69
2022/04/01 14:27:40;;;;;;;;;5.33;5.33;;;;;;;;5078216;27;45528;-72
2022/04/01 14:30:18;;;;;;;;;5.33;5.33;;;;;;;;5077533;27;45420;-71
2022/04/01 14:32:47;;;;;;;;;5.33;5.33;;;;;;;;5077580;28;45554;-69
2022/04/01 14:35:12;;;;;;;;;5.00;5.00;;;;;;;;5078558;27;45454;-71
2022/04/01 14:37:38;;;;;;;;;8.00;5.33;;;;;;;;5077682;27;47238;-71
2022/04/01 14:40:04;;;;;;;;;7.67;5.33;;;;;;;;5077817;27;45291;-74
2022/04/01 14:42:29;;;;;;;;;8.00;6.33;;;;;;;;5077780;27;45451;-75
2022/04/01 14:44:55;;;;;;;;;7.33;7.33;;;;;;;;5078136;28;45576;-75
2022/04/01 14:47:20;;;;;;;;;4.33;4.33;;;;;;;;5078064;28;46957;-74
2022/04/01 14:49:45;;;;;;;;;7.00;4.67;;;;;;;;5077836;28;45368;-74